sensor_id;sensor_type;location;lat;lon;timestamp;P1;durP1;ratioP1;P2;durP2;ratioP2
55140;SDS011;41035;44.280;19.870;2022-09-09T04:57:13;19.13;;;9.02;;
55140;SDS011;41035;44.280;19.870;2022-09-09T04:59:40;18.92;;;9.27;;
55140;SDS011;41035;44.280;19.870;2022-09-09T06:43:51;24.30;;;7.50;;
55140;SDS011;41035;44.280;19.870;2022-09-09T07:04:31;14.73;;;7.15;;
55140;SDS011;41035;44.280;19.870;2022-09-09T07:07:25;15.85;;;7.22;;
55140;SDS011;41035;44.280;19.870;2022-09-09T07:15:53;13.20;;;7.00;;
55140;SDS011;41035;44.280;19.870;2022-09-09T07:18:45;15.77;;;7.15;;
55140;SDS011;41035;44.280;19.870;2022-09-09T07:31:34;32.13;;;8.02;;
55140;SDS011;41035;44.280;19.870;2022-09-09T08:04:36;19.05;;;6.68;;
55140;SDS011;41035;44.280;19.870;2022-09-09T08:07:02;12.25;;;5.47;;
55140;SDS011;41035;44.280;19.870;2022-09-09T08:09:28;11.93;;;5.53;;
55140;SDS011;41035;44.280;19.870;2022-09-09T08:14:23;11.23;;;5.28;;
55140;SDS011;41035;44.280;19.870;2022-09-09T08:16:50;8.27;;;5.03;;
55140;SDS011;41035;44.280;19.870;2022-09-09T08:19:18;12.18;;;4.88;;
55140;SDS011;41035;44.280;19.870;2022-09-09T08:21:44;11.13;;;6.47;;
55140;SDS011;41035;44.280;19.870;2022-09-09T08:24:11;12.05;;;4.38;;
55140;SDS011;41035;44.280;19.870;2022-09-09T08:26:40;10.50;;;5.07;;
55140;SDS011;41035;44.280;19.870;2022-09-09T08:29:07;10.25;;;4.80;;
55140;SDS011;41035;44.280;19.870;2022-09-09T08:31:36;6.20;;;4.13;;
55140;SDS011;41035;44.280;19.870;2022-09-09T08:34:03;8.40;;;3.88;;
55140;SDS011;41035;44.280;19.870;2022-09-09T08:36:30;11.88;;;3.60;;
55140;SDS011;41035;44.280;19.870;2022-09-09T08:38:58;10.00;;;4.63;;
55140;SDS011;41035;44.280;19.870;2022-09-09T08:43:51;9.05;;;4.10;;
55140;SDS011;41035;44.280;19.870;2022-09-09T08:46:27;7.72;;;3.42;;
55140;SDS011;41035;44.280;19.870;2022-09-09T08:52:00;9.57;;;4.15;;
55140;SDS011;41035;44.280;19.870;2022-09-09T08:54:30;7.97;;;3.42;;
55140;SDS011;41035;44.280;19.870;2022-09-09T08:57:02;8.27;;;3.40;;
55140;SDS011;41035;44.280;19.870;2022-09-09T08:59:44;6.43;;;3.30;;
55140;SDS011;41035;44.280;19.870;2022-09-09T09:02:42;9.23;;;3.40;;
55140;SDS011;41035;44.280;19.870;2022-09-09T09:34:43;4.55;;;2.10;;
55140;SDS011;41035;44.280;19.870;2022-09-09T09:37:28;6.93;;;2.40;;
55140;SDS011;41035;44.280;19.870;2022-09-09T09:39:55;3.70;;;2.05;;
55140;SDS011;41035;44.280;19.870;2022-09-09T09:45:44;4.25;;;1.90;;
55140;SDS011;41035;44.280;19.870;2022-09-09T09:51:41;5.13;;;2.00;;
55140;SDS011;41035;44.280;19.870;2022-09-09T09:57:09;3.95;;;2.03;;
55140;SDS011;41035;44.280;19.870;2022-09-09T10:00:16;6.25;;;2.20;;
55140;SDS011;41035;44.280;19.870;2022-09-09T10:02:48;6.22;;;2.13;;
55140;SDS011;41035;44.280;19.870;2022-09-09T10:23:29;13.57;;;4.05;;
55140;SDS011;41035;44.280;19.870;2022-09-09T10:29:08;6.22;;;2.97;;
55140;SDS011;41035;44.280;19.870;2022-09-09T10:34:33;24.77;;;4.72;;
55140;SDS011;41035;44.280;19.870;2022-09-09T10:37:37;10.00;;;3.20;;
55140;SDS011;41035;44.280;19.870;2022-09-09T10:43:00;7.72;;;3.28;;
55140;SDS011;41035;44.280;19.870;2022-09-09T10:45:32;10.52;;;3.92;;
55140;SDS011;41035;44.280;19.870;2022-09-09T10:48:09;10.70;;;3.78;;
55140;SDS011;41035;44.280;19.870;2022-09-09T10:50:50;8.05;;;3.22;;
55140;SDS011;41035;44.280;19.870;2022-09-09T10:53:32;7.93;;;3.22;;
55140;SDS011;41035;44.280;19.870;2022-09-09T10:56:12;7.95;;;3.50;;
55140;SDS011;41035;44.280;19.870;2022-09-09T11:01:21;9.52;;;2.63;;
55140;SDS011;41035;44.280;19.870;2022-09-09T11:03:50;7.45;;;3.13;;
55140;SDS011;41035;44.280;19.870;2022-09-09T11:06:19;8.88;;;3.50;;
55140;SDS011;41035;44.280;19.870;2022-09-09T11:08:48;6.53;;;3.20;;
55140;SDS011;41035;44.280;19.870;2022-09-09T11:12:20;12.45;;;3.67;;
55140;SDS011;41035;44.280;19.870;2022-09-09T11:14:18;8.15;;;3.60;;
55140;SDS011;41035;44.280;19.870;2022-09-09T11:17:04;8.45;;;3.53;;
55140;SDS011;41035;44.280;19.870;2022-09-09T11:24:28;5.93;;;3.28;;
55140;SDS011;41035;44.280;19.870;2022-09-09T11:27:04;6.63;;;3.10;;
55140;SDS011;41035;44.280;19.870;2022-09-09T11:29:59;8.68;;;3.33;;
55140;SDS011;41035;44.280;19.870;2022-09-09T11:38:02;8.80;;;3.40;;
55140;SDS011;41035;44.280;19.870;2022-09-09T11:40:30;8.05;;;4.63;;
55140;SDS011;41035;44.280;19.870;2022-09-09T11:45:39;10.05;;;3.22;;
55140;SDS011;41035;44.280;19.870;2022-09-09T11:48:23;9.20;;;3.33;;
55140;SDS011;41035;44.280;19.870;2022-09-09T11:51:01;7.93;;;3.40;;
55140;SDS011;41035;44.280;19.870;2022-09-09T11:53:31;5.15;;;2.60;;
55140;SDS011;41035;44.280;19.870;2022-09-09T11:56:09;9.82;;;3.00;;
55140;SDS011;41035;44.280;19.870;2022-09-09T11:58:42;5.28;;;2.80;;
55140;SDS011;41035;44.280;19.870;2022-09-09T12:01:14;8.43;;;3.17;;
55140;SDS011;41035;44.280;19.870;2022-09-09T12:04:05;6.50;;;3.15;;
55140;SDS011;41035;44.280;19.870;2022-09-09T12:06:44;6.93;;;3.15;;
55140;SDS011;41035;44.280;19.870;2022-09-09T12:18:07;11.40;;;3.92;;
55140;SDS011;41035;44.280;19.870;2022-09-09T12:24:06;6.50;;;3.40;;
55140;SDS011;41035;44.280;19.870;2022-09-09T12:27:16;10.35;;;4.25;;
55140;SDS011;41035;44.280;19.870;2022-09-09T12:30:35;9.82;;;3.50;;
55140;SDS011;41035;44.280;19.870;2022-09-09T12:40:00;9.00;;;3.50;;
55140;SDS011;41035;44.280;19.870;2022-09-09T12:45:48;6.85;;;3.42;;
55140;SDS011;41035;44.280;19.870;2022-09-09T12:48:44;11.85;;;3.25;;
55140;SDS011;41035;44.280;19.870;2022-09-09T12:51:55;6.32;;;3.17;;
55140;SDS011;41035;44.280;19.870;2022-09-09T13:45:00;6.88;;;2.80;;
55140;SDS011;41035;44.280;19.870;2022-09-09T13:47:39;5.88;;;2.70;;
55140;SDS011;41035;44.280;19.870;2022-09-09T13:52:41;4.53;;;2.70;;
55140;SDS011;41035;44.280;19.870;2022-09-09T13:55:35;7.23;;;2.33;;
55140;SDS011;41035;44.280;19.870;2022-09-09T13:58:14;7.13;;;3.15;;
55140;SDS011;41035;44.280;19.870;2022-09-09T14:00:54;11.88;;;2.80;;
55140;SDS011;41035;44.280;19.870;2022-09-09T16:54:32;8.00;;;3.60;;
55140;SDS011;41035;44.280;19.870;2022-09-09T17:03:12;10.70;;;4.90;;
55140;SDS011;41035;44.280;19.870;2022-09-09T17:57:10;12.18;;;3.90;;
55140;SDS011;41035;44.280;19.870;2022-09-09T17:59:59;14.90;;;3.78;;
55140;SDS011;41035;44.280;19.870;2022-09-09T18:02:43;11.10;;;3.40;;
55140;SDS011;41035;44.280;19.870;2022-09-09T18:05:44;10.40;;;3.70;;
55140;SDS011;41035;44.280;19.870;2022-09-09T18:09:05;9.40;;;3.40;;
55140;SDS011;41035;44.280;19.870;2022-09-09T18:11:57;12.65;;;4.72;;
55140;SDS011;41035;44.280;19.870;2022-09-09T18:14:44;11.63;;;4.05;;
55140;SDS011;41035;44.280;19.870;2022-09-09T18:19:50;20.75;;;5.55;;
55140;SDS011;41035;44.280;19.870;2022-09-09T18:22:16;15.05;;;3.97;;
55140;SDS011;41035;44.280;19.870;2022-09-09T18:24:43;13.40;;;4.78;;
55140;SDS011;41035;44.280;19.870;2022-09-09T18:27:19;12.27;;;4.10;;
55140;SDS011;41035;44.280;19.870;2022-09-09T18:30:03;7.97;;;3.38;;
55140;SDS011;41035;44.280;19.870;2022-09-09T18:32:35;8.80;;;4.00;;
55140;SDS011;41035;44.280;19.870;2022-09-09T18:35:06;12.25;;;4.00;;
55140;SDS011;41035;44.280;19.870;2022-09-09T18:37:38;10.45;;;3.67;;
55140;SDS011;41035;44.280;19.870;2022-09-09T18:40:12;7.40;;;3.20;;
55140;SDS011;41035;44.280;19.870;2022-09-09T18:42:38;17.35;;;4.22;;
55140;SDS011;41035;44.280;19.870;2022-09-09T18:45:07;17.83;;;5.38;;
55140;SDS011;41035;44.280;19.870;2022-09-09T18:47:38;11.75;;;4.20;;
55140;SDS011;41035;44.280;19.870;2022-09-09T18:50:09;14.15;;;4.68;;
55140;SDS011;41035;44.280;19.870;2022-09-09T18:52:46;10.23;;;4.57;;
55140;SDS011;41035;44.280;19.870;2022-09-09T18:55:15;10.20;;;4.53;;
55140;SDS011;41035;44.280;19.870;2022-09-09T18:57:49;13.15;;;4.90;;
55140;SDS011;41035;44.280;19.870;2022-09-09T19:00:15;13.95;;;4.45;;
55140;SDS011;41035;44.280;19.870;2022-09-09T19:02:41;11.70;;;4.53;;
55140;SDS011;41035;44.280;19.870;2022-09-09T19:14:33;11.77;;;5.22;;
55140;SDS011;41035;44.280;19.870;2022-09-09T19:17:43;11.13;;;4.60;;
55140;SDS011;41035;44.280;19.870;2022-09-09T19:20:40;8.27;;;5.30;;
55140;SDS011;41035;44.280;19.870;2022-09-09T19:23:35;14.50;;;5.80;;
55140;SDS011;41035;44.280;19.870;2022-09-09T20:02:36;11.27;;;6.07;;
55140;SDS011;41035;44.280;19.870;2022-09-09T20:05:06;14.95;;;5.28;;
55140;SDS011;41035;44.280;19.870;2022-09-09T20:07:33;15.63;;;6.28;;
55140;SDS011;41035;44.280;19.870;2022-09-09T20:09:59;13.52;;;6.28;;
55140;SDS011;41035;44.280;19.870;2022-09-09T20:12:25;16.13;;;6.25;;
55140;SDS011;41035;44.280;19.870;2022-09-09T20:14:51;9.85;;;6.18;;
55140;SDS011;41035;44.280;19.870;2022-09-09T20:17:18;14.63;;;6.50;;
55140;SDS011;41035;44.280;19.870;2022-09-09T20:19:47;12.93;;;5.75;;
55140;SDS011;41035;44.280;19.870;2022-09-09T20:24:39;12.02;;;6.30;;
55140;SDS011;41035;44.280;19.870;2022-09-09T20:27:07;15.18;;;6.07;;
55140;SDS011;41035;44.280;19.870;2022-09-09T20:29:33;10.85;;;5.47;;
55140;SDS011;41035;44.280;19.870;2022-09-09T20:31:59;11.38;;;5.68;;
55140;SDS011;41035;44.280;19.870;2022-09-09T20:34:25;14.15;;;6.20;;
55140;SDS011;41035;44.280;19.870;2022-09-09T20:36:54;11.75;;;5.82;;
55140;SDS011;41035;44.280;19.870;2022-09-09T20:39:23;9.90;;;5.90;;
55140;SDS011;41035;44.280;19.870;2022-09-09T20:41:49;11.85;;;5.20;;
55140;SDS011;41035;44.280;19.870;2022-09-09T20:44:20;12.27;;;5.20;;
55140;SDS011;41035;44.280;19.870;2022-09-09T20:46:49;11.52;;;5.68;;
55140;SDS011;41035;44.280;19.870;2022-09-09T20:49:16;18.17;;;5.80;;
55140;SDS011;41035;44.280;19.870;2022-09-09T20:51:43;12.35;;;6.18;;
55140;SDS011;41035;44.280;19.870;2022-09-09T20:54:14;16.52;;;6.07;;
55140;SDS011;41035;44.280;19.870;2022-09-09T20:56:41;13.02;;;5.22;;
55140;SDS011;41035;44.280;19.870;2022-09-09T20:59:12;14.13;;;6.20;;
55140;SDS011;41035;44.280;19.870;2022-09-09T21:01:39;11.40;;;5.70;;
55140;SDS011;41035;44.280;19.870;2022-09-09T21:04:06;11.88;;;6.22;;
55140;SDS011;41035;44.280;19.870;2022-09-09T21:06:49;15.13;;;6.07;;
55140;SDS011;41035;44.280;19.870;2022-09-09T21:46:39;8.55;;;4.13;;
55140;SDS011;41035;44.280;19.870;2022-09-09T22:06:49;10.98;;;4.88;;
55140;SDS011;41035;44.280;19.870;2022-09-09T22:09:35;10.43;;;4.68;;
55140;SDS011;41035;44.280;19.870;2022-09-09T22:15:17;10.82;;;4.35;;
55140;SDS011;41035;44.280;19.870;2022-09-09T22:17:43;6.68;;;4.45;;
55140;SDS011;41035;44.280;19.870;2022-09-09T22:25:48;9.85;;;4.53;;
55140;SDS011;41035;44.280;19.870;2022-09-09T22:31:09;11.10;;;4.90;;
55140;SDS011;41035;44.280;19.870;2022-09-09T22:33:59;8.45;;;4.13;;
55140;SDS011;41035;44.280;19.870;2022-09-09T22:43:18;11.95;;;4.55;;
55140;SDS011;41035;44.280;19.870;2022-09-09T22:49:12;5.65;;;4.28;;
55140;SDS011;41035;44.280;19.870;2022-09-09T22:51:41;6.28;;;4.20;;
55140;SDS011;41035;44.280;19.870;2022-09-09T22:54:13;8.95;;;4.75;;
55140;SDS011;41035;44.280;19.870;2022-09-09T23:17:45;6.55;;;3.97;;
55140;SDS011;41035;44.280;19.870;2022-09-09T23:20:26;7.57;;;3.75;;
